Time;durP1;ratioP1;P1;durP2;ratioP2;P2;SDS_P1;SDS_P2;PMS_P1;PMS_P2;Temp;Humidity;BMP_temperature;BMP_pressure;BME280_temperature;BME280_humidity;BME280_pressure;Samples;Min_cycle;Max_cycle;Signal;HPM_P1;HPM_P2
2023/06/12 00:02:51;;;;;;;3.50;2.60;;;20.20;79.50;;;;;;7835808;28;20202;-91
2023/06/12 00:06:37;;;;;;;3.13;2.83;;;20.10;79.70;;;;;;7832433;28;20193;-91
2023/06/12 00:10:23;;;;;;;3.42;2.75;;;20.10;79.90;;;;;;7840874;28;20212;-91
2023/06/12 00:14:09;;;;;;;3.90;2.70;;;20.10;79.90;;;;;;7851383;28;20246;-91
2023/06/12 00:17:54;;;;;;;3.00;2.70;;;20.00;79.90;;;;;;7836416;28;20218;-90
2023/06/12 00:21:40;;;;;;;3.90;3.00;;;19.90;80.10;;;;;;7839698;28;20271;-90
2023/06/12 00:25:26;;;;;;;5.13;3.08;;;19.80;80.10;;;;;;7830293;28;20332;-90
2023/06/12 00:29:12;;;;;;;5.65;3.17;;;19.80;80.30;;;;;;7837339;28;20189;-91
2023/06/12 00:32:57;;;;;;;5.95;3.20;;;19.70;80.30;;;;;;7838654;28;20198;-90
2023/06/12 00:36:44;;;;;;;4.38;3.00;;;19.70;80.40;;;;;;7838457;28;20205;-90
2023/06/12 00:40:30;;;;;;;4.85;2.95;;;19.60;80.40;;;;;;7842511;28;20221;-91
2023/06/12 00:44:15;;;;;;;3.42;2.88;;;19.60;80.60;;;;;;7841643;28;20182;-90
2023/06/12 00:48:03;;;;;;;3.53;2.63;;;19.50;80.70;;;;;;7869896;28;20178;-91
2023/06/12 00:51:48;;;;;;;5.15;3.42;;;19.50;80.90;;;;;;7849028;28;20240;-90
2023/06/12 00:55:35;;;;;;;2.90;2.70;;;19.40;80.80;;;;;;7838322;28;20190;-90
2023/06/12 00:59:21;;;;;;;3.60;2.83;;;19.30;81.00;;;;;;7831215;28;20201;-90
2023/06/12 01:03:09;;;;;;;4.25;3.00;;;19.30;81.10;;;;;;7837071;28;20202;-90
2023/06/12 01:07:02;;;;;;;6.22;3.35;;;19.20;81.10;;;;;;7836604;28;20723;-91
2023/06/12 01:11:03;;;;;;;6.03;3.17;;;19.10;81.30;;;;;;7837905;28;20210;-90
2023/06/12 01:14:48;;;;;;;3.72;3.05;;;19.10;81.80;;;;;;7837371;28;20218;-90
2023/06/12 01:18:34;;;;;;;4.30;3.13;;;19.00;81.60;;;;;;7833628;28;20214;-90
2023/06/12 01:22:21;;;;;;;3.10;2.80;;;19.00;81.70;;;;;;7834773;28;20308;-90
2023/06/12 01:26:25;;;;;;;4.65;2.80;;;18.90;81.90;;;;;;7836902;28;20185;-90
2023/06/12 01:31:03;;;;;;;4.70;3.22;;;18.90;81.90;;;;;;7824690;28;20273;-90
2023/06/12 01:34:56;;;;;;;4.78;2.67;;;18.80;82.00;;;;;;7833135;28;20712;-91
2023/06/12 01:38:45;;;;;;;3.50;2.75;;;18.70;82.30;;;;;;7837047;28;20206;-90
2023/06/12 01:42:32;;;;;;;5.72;3.00;;;18.70;83.20;;;;;;7834762;28;20213;-90
2023/06/12 01:46:17;;;;;;;9.00;2.85;;;18.60;82.20;;;;;;7837487;28;20272;-91
2023/06/12 01:50:04;;;;;;;3.45;2.70;;;18.60;82.30;;;;;;7835142;28;20189;-90
2023/06/12 01:53:50;;;;;;;4.03;2.80;;;18.60;82.70;;;;;;7836376;28;20229;-91
2023/06/12 01:57:37;;;;;;;3.80;2.67;;;18.50;82.70;;;;;;7831833;28;20213;-90
2023/06/12 02:01:23;;;;;;;3.72;2.83;;;18.50;83.00;;;;;;7836303;28;20407;-90
2023/06/12 02:05:10;;;;;;;7.07;2.75;;;18.50;83.00;;;;;;7836988;28;20566;-90
2023/06/12 02:08:55;;;;;;;5.47;2.80;;;18.40;83.10;;;;;;7836633;28;20210;-91
2023/06/12 02:12:43;;;;;;;5.43;2.88;;;18.40;83.10;;;;;;7829928;28;20210;-90
2023/06/12 02:16:30;;;;;;;4.57;2.85;;;18.40;83.30;;;;;;7832961;28;20206;-90
2023/06/12 02:20:15;;;;;;;4.40;2.72;;;18.30;83.20;;;;;;7837419;28;20259;-90
2023/06/12 02:24:01;;;;;;;4.10;2.85;;;18.20;83.10;;;;;;7836579;28;20186;-90
2023/06/12 02:27:46;;;;;;;13.63;3.13;;;18.20;83.20;;;;;;7837282;28;20194;-91
2023/06/12 02:31:32;;;;;;;4.18;2.90;;;18.10;83.10;;;;;;7864161;28;20202;-92
2023/06/12 02:35:18;;;;;;;3.75;3.28;;;18.10;83.40;;;;;;7842854;28;20201;-90
2023/06/12 02:39:03;;;;;;;3.08;2.78;;;18.00;83.30;;;;;;7835769;28;20574;-90
2023/06/12 02:42:49;;;;;;;5.43;3.03;;;17.90;83.40;;;;;;7835131;28;20201;-90
2023/06/12 02:46:55;;;;;;;3.33;2.63;;;17.90;83.60;;;;;;7835299;28;20687;-90
2023/06/12 02:50:40;;;;;;;6.40;3.00;;;17.80;83.70;;;;;;7835243;28;20584;-90
2023/06/12 02:54:27;;;;;;;5.10;2.92;;;17.80;83.80;;;;;;7843196;28;20194;-91
2023/06/12 02:58:13;;;;;;;3.38;2.95;;;17.80;83.80;;;;;;7838365;28;20260;-89
2023/06/12 03:01:59;;;;;;;3.65;2.70;;;17.60;83.80;;;;;;7832307;28;20209;-90
2023/06/12 03:05:44;;;;;;;4.13;2.75;;;17.70;84.00;;;;;;7825866;28;20183;-90
2023/06/12 03:09:32;;;;;;;3.85;2.85;;;17.60;83.90;;;;;;7835717;28;20200;-90
2023/06/12 03:13:18;;;;;;;4.53;2.40;;;17.60;84.20;;;;;;7833662;28;20258;-90
2023/06/12 03:17:05;;;;;;;3.83;2.65;;;17.50;84.30;;;;;;7824209;28;20208;-90
2023/06/12 03:20:51;;;;;;;4.30;2.90;;;17.50;84.40;;;;;;7831052;28;20293;-90
2023/06/12 03:24:37;;;;;;;3.47;2.47;;;17.50;84.40;;;;;;7827372;28;20179;-91
2023/06/12 03:28:23;;;;;;;5.55;2.70;;;17.40;84.40;;;;;;7827249;28;20265;-91
2023/06/12 03:32:09;;;;;;;4.10;2.35;;;17.40;84.60;;;;;;7831731;28;20198;-90
2023/06/12 03:35:55;;;;;;;5.25;2.50;;;17.30;84.50;;;;;;7833920;28;20202;-90
2023/06/12 03:39:40;;;;;;;3.05;2.58;;;17.30;84.70;;;;;;7834058;28;20182;-90
2023/06/12 03:43:26;;;;;;;4.50;2.50;;;17.30;84.80;;;;;;7833156;28;20198;-90
2023/06/12 03:47:12;;;;;;;4.45;2.78;;;17.30;84.80;;;;;;7835558;28;20208;-90
2023/06/12 03:50:57;;;;;;;7.55;2.78;;;17.30;84.80;;;;;;7836056;28;20209;-90
2023/06/12 03:54:43;;;;;;;7.15;2.67;;;17.20;84.90;;;;;;7838236;28;20219;-90
2023/06/12 03:58:29;;;;;;;5.35;3.33;;;17.10;84.90;;;;;;7836905;28;20248;-90
2023/06/12 04:02:14;;;;;;;5.32;2.97;;;17.10;85.20;;;;;;7830960;28;20806;-90
2023/06/12 04:06:00;;;;;;;3.47;2.85;;;17.10;85.20;;;;;;7825919;28;20221;-90
2023/06/12 04:09:46;;;;;;;3.33;2.50;;;17.10;85.40;;;;;;7813752;28;20674;-90
2023/06/12 04:13:31;;;;;;;2.65;2.45;;;17.10;85.30;;;;;;7845521;28;20209;-92
2023/06/12 04:17:17;;;;;;;6.03;3.10;;;17.10;85.40;;;;;;7862239;28;20222;-90
2023/06/12 04:21:03;;;;;;;3.33;2.72;;;17.10;85.50;;;;;;7838908;28;20198;-90
2023/06/12 04:24:49;;;;;;;6.07;2.78;;;17.10;85.40;;;;;;7822232;28;20332;-90
2023/06/12 04:28:38;;;;;;;5.70;2.80;;;17.00;85.20;;;;;;7836335;28;20182;-90
2023/06/12 04:32:23;;;;;;;3.67;2.88;;;17.00;85.60;;;;;;7833569;28;20225;-90
2023/06/12 04:36:17;;;;;;;3.85;3.10;;;17.00;86.60;;;;;;7826765;28;20212;-90
2023/06/12 04:40:04;;;;;;;4.60;2.90;;;17.00;85.80;;;;;;7824536;28;20208;-86
2023/06/12 04:43:51;;;;;;;7.53;2.80;;;17.00;85.80;;;;;;7843439;28;20495;-90
2023/06/12 04:47:37;;;;;;;5.20;3.15;;;17.00;86.70;;;;;;7833147;28;20182;-90
2023/06/12 04:51:23;;;;;;;5.03;3.00;;;17.00;86.00;;;;;;7840578;28;20209;-89
2023/06/12 04:55:09;;;;;;;4.85;2.92;;;16.90;85.50;;;;;;7835156;28;20193;-90
2023/06/12 04:58:55;;;;;;;3.85;2.90;;;16.90;86.00;;;;;;7838163;28;20245;-90
2023/06/12 05:02:42;;;;;;;5.32;3.13;;;16.90;86.10;;;;;;7839872;28;20194;-89
2023/06/12 05:06:28;;;;;;;4.53;2.95;;;16.80;84.90;;;;;;7837751;28;20182;-90
2023/06/12 05:10:15;;;;;;;5.82;3.08;;;16.80;86.00;;;;;;7840912;28;20193;-90
2023/06/12 05:14:00;;;;;;;3.55;2.85;;;16.80;86.10;;;;;;7841499;28;20182;-89
2023/06/12 05:17:46;;;;;;;6.15;3.05;;;16.80;86.30;;;;;;7837971;28;20201;-89
2023/06/12 05:21:32;;;;;;;6.13;2.72;;;16.80;86.10;;;;;;7849309;28;20249;-90
2023/06/12 05:25:17;;;;;;;5.65;2.75;;;16.80;86.10;;;;;;7839495;28;20182;-89
2023/06/12 05:29:03;;;;;;;7.40;3.53;;;16.80;86.20;;;;;;7837963;28;20231;-86
2023/06/12 05:32:49;;;;;;;6.22;3.38;;;16.80;85.30;;;;;;7839560;28;20194;-90
2023/06/12 05:36:36;;;;;;;5.70;3.42;;;16.80;85.20;;;;;;7855698;28;20290;-90
2023/06/12 05:40:22;;;;;;;6.35;3.53;;;16.80;86.00;;;;;;7827532;28;20217;-90
2023/06/12 05:44:09;;;;;;;11.18;3.60;;;16.90;85.90;;;;;;7815117;28;20179;-91
2023/06/12 05:47:55;;;;;;;4.85;3.50;;;17.10;86.20;;;;;;7836401;28;20186;-90
2023/06/12 05:51:40;;;;;;;7.00;3.60;;;17.20;86.40;;;;;;7833005;28;20218;-90
2023/06/12 05:55:26;;;;;;;7.88;3.72;;;17.40;87.30;;;;;;7835439;28;20335;-90
2023/06/12 05:59:12;;;;;;;6.22;3.70;;;17.50;86.50;;;;;;7878207;28;20206;-90
2023/06/12 06:02:57;;;;;;;5.13;3.38;;;17.60;86.50;;;;;;7846538;28;20206;-89
2023/06/12 06:06:44;;;;;;;6.15;3.90;;;17.70;87.00;;;;;;7832680;28;20648;-89
2023/06/12 06:10:29;;;;;;;4.40;3.65;;;17.90;86.80;;;;;;7839643;28;20186;-90
2023/06/12 06:14:17;;;;;;;4.80;4.25;;;18.00;87.10;;;;;;7838954;28;20244;-90
2023/06/12 06:18:03;;;;;;;5.38;3.78;;;18.20;88.10;;;;;;7839774;28;20683;-90
2023/06/12 06:21:48;;;;;;;5.38;3.80;;;18.40;88.20;;;;;;7838029;28;20214;-90
2023/06/12 06:25:35;;;;;;;4.63;3.75;;;18.60;87.40;;;;;;7836810;28;20312;-90
2023/06/12 06:29:20;;;;;;;6.85;3.92;;;18.80;87.10;;;;;;7838055;28;20228;-89
2023/06/12 06:33:06;;;;;;;5.47;3.67;;;19.00;88.00;;;;;;7831318;28;20210;-90
2023/06/12 06:36:52;;;;;;;4.88;4.10;;;19.10;88.70;;;;;;7815622;28;20224;-91
2023/06/12 06:40:37;;;;;;;4.95;3.90;;;19.30;86.10;;;;;;7838756;28;20201;-90
2023/06/12 06:44:23;;;;;;;7.70;3.75;;;19.50;85.20;;;;;;7837389;28;20177;-90
2023/06/12 06:48:11;;;;;;;5.13;3.90;;;19.60;83.60;;;;;;7836813;28;20181;-89
2023/06/12 06:51:56;;;;;;;6.78;3.72;;;19.80;84.90;;;;;;7812555;28;20275;-90
2023/06/12 06:55:42;;;;;;;8.98;3.90;;;19.90;82.90;;;;;;7832736;28;20186;-90
2023/06/12 06:59:28;;;;;;;6.35;4.10;;;19.80;82.00;;;;;;7833890;28;20185;-90
2023/06/12 07:03:14;;;;;;;8.63;3.75;;;20.00;79.90;;;;;;7836350;28;20272;-91
2023/06/12 07:07:00;;;;;;;7.78;3.72;;;20.30;79.60;;;;;;7836456;28;20282;-90
2023/06/12 07:10:45;;;;;;;6.65;4.10;;;20.40;75.50;;;;;;7836601;28;20206;-90
2023/06/12 07:14:31;;;;;;;7.80;4.05;;;20.50;72.50;;;;;;7813369;28;20186;-90
2023/06/12 07:18:17;;;;;;;9.45;3.90;;;20.70;73.20;;;;;;7819112;28;20217;-90
2023/06/12 07:22:04;;;;;;;6.25;3.60;;;20.90;74.10;;;;;;7831360;28;20844;-90
2023/06/12 07:25:50;;;;;;;6.78;4.57;;;21.00;70.00;;;;;;7837961;28;20543;-90
2023/06/12 07:29:36;;;;;;;5.10;3.53;;;21.10;68.80;;;;;;7835239;28;20213;-90
2023/06/12 07:33:21;;;;;;;6.78;4.30;;;21.20;67.60;;;;;;7805610;28;20198;-91
2023/06/12 07:37:07;;;;;;;8.77;3.72;;;21.30;66.50;;;;;;7807148;28;20574;-90
2023/06/12 07:40:53;;;;;;;4.90;3.90;;;21.40;65.90;;;;;;7834681;28;20196;-90
2023/06/12 07:44:40;;;;;;;5.18;4.03;;;21.60;66.10;;;;;;7860115;28;20670;-90
2023/06/12 07:48:26;;;;;;;5.38;3.85;;;21.70;65.00;;;;;;7811953;28;20186;-91
2023/06/12 07:52:11;;;;;;;7.60;3.80;;;21.80;66.00;;;;;;7822157;28;20236;-90
2023/06/12 07:55:57;;;;;;;3.92;3.22;;;22.00;65.90;;;;;;7835747;28;20189;-91
2023/06/12 07:59:44;;;;;;;8.20;3.80;;;22.10;64.70;;;;;;7837004;28;20170;-91
2023/06/12 08:03:30;;;;;;;12.90;3.92;;;22.20;63.70;;;;;;7837034;28;20232;-90
2023/06/12 08:07:15;;;;;;;4.88;3.53;;;22.30;62.00;;;;;;7836551;28;20667;-90
2023/06/12 08:11:01;;;;;;;6.22;3.60;;;22.40;61.90;;;;;;7841587;28;20256;-90
2023/06/12 08:14:48;;;;;;;5.45;3.45;;;22.40;61.90;;;;;;7844541;28;20672;-90
2023/06/12 08:18:34;;;;;;;3.90;3.38;;;22.40;61.80;;;;;;7859443;28;20213;-91
2023/06/12 08:22:20;;;;;;;5.85;3.58;;;22.40;61.20;;;;;;7834332;28;20279;-91
2023/06/12 08:26:06;;;;;;;6.22;3.45;;;22.50;62.70;;;;;;7841127;28;20178;-90
2023/06/12 08:29:51;;;;;;;5.72;3.10;;;22.40;62.90;;;;;;7837939;28;20178;-90
2023/06/12 08:33:37;;;;;;;3.42;3.10;;;22.60;64.00;;;;;;7841724;28;20193;-90
2023/06/12 08:37:22;;;;;;;3.47;3.05;;;22.80;62.40;;;;;;7842738;28;20624;-90
2023/06/12 08:41:09;;;;;;;7.97;3.20;;;23.00;64.30;;;;;;7837651;28;20205;-90
2023/06/12 08:45:07;;;;;;;7.63;3.10;;;23.10;61.20;;;;;;7845200;28;20197;-90
2023/06/12 08:48:53;;;;;;;5.68;3.17;;;22.90;63.40;;;;;;7843118;28;20188;-91
2023/06/12 08:52:41;;;;;;;11.32;2.90;;;23.00;63.10;;;;;;7845474;28;20687;-90
2023/06/12 08:56:27;;;;;;;4.15;3.33;;;23.10;61.50;;;;;;7844810;28;20206;-90
2023/06/12 09:00:14;;;;;;;4.60;3.13;;;23.20;61.80;;;;;;7837181;28;20193;-90
2023/06/12 09:04:03;;;;;;;7.68;3.13;;;23.30;61.90;;;;;;7835298;28;20186;-90
2023/06/12 09:07:50;;;;;;;5.65;2.97;;;23.40;61.00;;;;;;7841067;28;20178;-90
2023/06/12 09:11:37;;;;;;;5.28;3.03;;;23.30;60.10;;;;;;7840101;28;20236;-90
2023/06/12 09:15:23;;;;;;;4.22;3.35;;;23.50;62.50;;;;;;7839713;28;20194;-90
2023/06/12 09:19:09;;;;;;;7.75;3.40;;;23.40;63.10;;;;;;7839834;28;20275;-91
2023/06/12 09:23:02;;;;;;;3.22;2.90;;;23.50;61.50;;;;;;7839155;28;20263;-90
2023/06/12 09:26:47;;;;;;;4.75;3.20;;;23.60;60.70;;;;;;7873299;28;20190;-90
2023/06/12 09:30:38;;;;;;;7.07;2.97;;;23.70;61.90;;;;;;7840272;28;20216;-90
2023/06/12 09:34:24;;;;;;;6.95;2.72;;;23.90;61.20;;;;;;7839203;28;20182;-91
2023/06/12 09:38:10;;;;;;;4.53;3.08;;;24.00;60.30;;;;;;7839610;28;20754;-90
2023/06/12 09:41:57;;;;;;;6.57;3.25;;;24.00;60.20;;;;;;7841123;28;20200;-92
2023/06/12 09:45:48;;;;;;;4.97;2.95;;;24.00;60.00;;;;;;7835455;28;20590;-92
2023/06/12 09:49:35;;;;;;;4.95;2.55;;;24.20;60.20;;;;;;7839847;28;20179;-93
2023/06/12 09:53:22;;;;;;;5.15;2.70;;;24.40;59.10;;;;;;7852415;28;20220;-92
2023/06/12 09:57:08;;;;;;;4.28;2.85;;;24.60;59.50;;;;;;7839456;28;20201;-92
2023/06/12 10:00:55;;;;;;;8.75;2.67;;;24.90;59.50;;;;;;7838227;28;20194;-91
2023/06/12 10:04:47;;;;;;;5.40;2.80;;;25.10;60.80;;;;;;7840031;28;20178;-92
2023/06/12 10:08:34;;;;;;;4.22;3.17;;;25.20;58.10;;;;;;7840189;28;20265;-91
2023/06/12 10:12:21;;;;;;;4.47;3.00;;;25.30;56.00;;;;;;7838833;28;20205;-91
2023/06/12 10:16:08;;;;;;;4.97;2.53;;;25.30;56.90;;;;;;7838920;28;20182;-91
2023/06/12 10:19:55;;;;;;;4.95;3.17;;;25.40;56.40;;;;;;7838534;28;20239;-91
2023/06/12 10:23:41;;;;;;;6.03;3.00;;;25.50;56.40;;;;;;7839470;28;20331;-91
2023/06/12 10:27:29;;;;;;;4.72;2.88;;;25.50;56.50;;;;;;7838300;28;20260;-91
2023/06/12 10:31:19;;;;;;;5.18;2.90;;;25.60;57.20;;;;;;7838790;28;20226;-91
2023/06/12 10:35:06;;;;;;;4.10;3.00;;;25.60;57.40;;;;;;7837236;28;20265;-90
2023/06/12 10:39:03;;;;;;;4.97;3.03;;;25.80;58.20;;;;;;7838072;28;20205;-92
2023/06/12 10:42:52;;;;;;;2.90;2.65;;;25.80;55.90;;;;;;7838055;28;20596;-91
2023/06/12 10:46:45;;;;;;;3.47;2.60;;;25.90;57.20;;;;;;7838549;28;20185;-91
2023/06/12 10:50:58;;;;;;;2.97;2.72;;;26.00;55.30;;;;;;7838150;28;20231;-92
2023/06/12 10:54:43;;;;;;;5.57;3.28;;;25.90;56.30;;;;;;7837331;28;20197;-91
2023/06/12 10:58:36;;;;;;;4.13;2.83;;;25.90;55.30;;;;;;7855911;28;20241;-91
2023/06/12 11:02:21;;;;;;;4.57;3.22;;;25.90;55.30;;;;;;7837179;28;20740;-92
2023/06/12 11:06:13;;;;;;;3.65;3.00;;;26.00;56.50;;;;;;7851851;28;20170;-92
2023/06/12 11:10:08;;;;;;;3.28;2.97;;;26.00;55.60;;;;;;7858970;28;20185;-91
2023/06/12 11:13:55;;;;;;;5.93;2.95;;;26.00;55.90;;;;;;7837170;28;20284;-93
2023/06/12 11:17:41;;;;;;;4.20;3.20;;;26.00;56.80;;;;;;7837521;28;20201;-92
2023/06/12 11:21:27;;;;;;;5.00;3.20;;;26.10;58.00;;;;;;7837204;28;20355;-92
2023/06/12 11:25:13;;;;;;;6.07;3.50;;;26.20;56.20;;;;;;7837319;28;20174;-91
2023/06/12 11:29:13;;;;;;;10.80;3.67;;;26.20;56.70;;;;;;7837205;28;20182;-92
2023/06/12 11:33:08;;;;;;;7.68;3.20;;;26.10;57.00;;;;;;7836935;28;20560;-92
2023/06/12 11:36:55;;;;;;;7.65;3.33;;;26.00;57.30;;;;;;7837426;28;20193;-92
2023/06/12 11:40:42;;;;;;;6.78;3.65;;;25.90;56.70;;;;;;7838055;28;20198;-91
2023/06/12 11:44:27;;;;;;;4.05;3.25;;;25.90;55.70;;;;;;7838011;28;20185;-94
2023/06/12 11:48:16;;;;;;;6.18;3.63;;;25.80;57.60;;;;;;7843032;28;20205;-92
2023/06/12 11:52:02;;;;;;;6.07;3.47;;;25.70;57.10;;;;;;7842308;28;20197;-91
2023/06/12 11:55:56;;;;;;;4.30;3.15;;;25.70;58.10;;;;;;7843297;28;20182;-91
2023/06/12 11:59:45;;;;;;;6.22;3.38;;;25.80;58.40;;;;;;7843610;28;20178;-91
2023/06/12 12:03:35;;;;;;;8.20;3.35;;;25.90;59.50;;;;;;7843113;28;20194;-92
2023/06/12 12:07:20;;;;;;;5.28;3.33;;;26.00;59.90;;;;;;7842929;28;20209;-91
2023/06/12 12:11:26;;;;;;;7.00;3.70;;;26.00;58.10;;;;;;7842051;28;20209;-91
2023/06/12 12:15:13;;;;;;;9.18;3.53;;;26.00;59.70;;;;;;7841895;28;20264;-91
2023/06/12 12:19:13;;;;;;;6.30;3.47;;;26.20;60.20;;;;;;7841966;28;20208;-92
2023/06/12 12:23:02;;;;;;;6.13;3.42;;;26.20;61.00;;;;;;7841697;28;20598;-91
2023/06/12 12:26:52;;;;;;;4.47;3.63;;;26.30;59.90;;;;;;7846497;28;20201;-91
2023/06/12 12:30:38;;;;;;;7.32;3.35;;;26.30;58.90;;;;;;7842069;28;20231;-91
2023/06/12 12:34:23;;;;;;;8.68;3.80;;;26.30;58.10;;;;;;7842342;28;20185;-91
2023/06/12 12:38:09;;;;;;;5.22;3.25;;;26.30;57.80;;;;;;7841722;28;20198;-91
2023/06/12 12:41:54;;;;;;;5.63;3.45;;;26.40;58.50;;;;;;7841327;28;20698;-91
2023/06/12 12:45:40;;;;;;;4.72;3.45;;;26.40;58.40;;;;;;7842222;28;20166;-91
2023/06/12 12:49:26;;;;;;;8.38;3.50;;;26.40;58.20;;;;;;7853965;28;20170;-91
2023/06/12 12:53:12;;;;;;;4.55;3.20;;;26.40;58.60;;;;;;7855649;28;20709;-91
2023/06/12 12:56:58;;;;;;;6.32;3.00;;;26.50;58.90;;;;;;7819245;28;20189;-91
2023/06/12 13:00:44;;;;;;;7.28;3.35;;;26.50;58.40;;;;;;7843168;28;20236;-91
2023/06/12 13:04:30;;;;;;;6.20;3.10;;;26.50;58.10;;;;;;7828359;28;20178;-91
2023/06/12 13:08:16;;;;;;;7.30;3.20;;;26.50;58.90;;;;;;7857085;28;20705;-91
2023/06/12 13:12:01;;;;;;;6.35;3.28;;;26.50;56.80;;;;;;7812912;28;20609;-91
2023/06/12 13:15:47;;;;;;;3.60;3.28;;;26.40;57.90;;;;;;7858412;28;20174;-91
2023/06/12 13:20:04;;;;;;;4.03;3.28;;;26.50;58.30;;;;;;7828460;28;20195;-91
2023/06/12 13:23:49;;;;;;;6.68;2.88;;;26.30;57.30;;;;;;7811604;28;20233;-91
2023/06/12 13:27:35;;;;;;;3.78;3.20;;;26.40;56.70;;;;;;7817538;28;20192;-91
2023/06/12 13:31:21;;;;;;;9.10;3.08;;;26.30;57.60;;;;;;7842679;28;20292;-91
2023/06/12 13:35:09;;;;;;;5.07;3.40;;;26.40;59.00;;;;;;7843596;28;20186;-91
2023/06/12 13:38:55;;;;;;;8.20;3.05;;;26.50;58.30;;;;;;7853301;28;20206;-91
2023/06/12 13:42:43;;;;;;;6.22;3.47;;;26.60;57.30;;;;;;7832539;28;20240;-91
2023/06/12 13:46:33;;;;;;;5.22;3.28;;;26.50;56.80;;;;;;7841697;28;20197;-90
2023/06/12 13:50:30;;;;;;;4.32;3.42;;;26.50;56.70;;;;;;7824457;28;20182;-90
2023/06/12 13:54:15;;;;;;;5.25;3.30;;;26.50;57.50;;;;;;7839172;28;20177;-90
2023/06/12 13:58:07;;;;;;;5.57;3.80;;;26.50;56.30;;;;;;7840513;28;20178;-91
2023/06/12 14:02:33;;;;;;;8.27;3.28;;;26.50;56.90;;;;;;7840399;28;20197;-90
2023/06/12 14:06:32;;;;;;;5.07;3.42;;;26.60;58.00;;;;;;7840712;28;20174;-91
2023/06/12 14:10:18;;;;;;;3.55;2.70;;;26.70;58.10;;;;;;7840501;28;20184;-90
2023/06/12 14:14:15;;;;;;;4.18;3.13;;;26.70;57.50;;;;;;7840767;28;20659;-91
2023/06/12 14:18:04;;;;;;;5.35;3.00;;;26.70;57.90;;;;;;7841096;28;20177;-91
2023/06/12 14:21:50;;;;;;;7.88;2.90;;;26.70;57.70;;;;;;7841259;28;20213;-91
2023/06/12 14:25:35;;;;;;;5.03;3.10;;;26.70;56.70;;;;;;7852872;28;20204;-91
2023/06/12 14:29:21;;;;;;;3.40;2.72;;;26.60;56.40;;;;;;7840610;28;20210;-91
2023/06/12 14:33:07;;;;;;;7.03;3.47;;;26.60;56.20;;;;;;7861343;28;20208;-91
2023/06/12 14:36:52;;;;;;;7.53;3.30;;;26.60;55.90;;;;;;7858583;28;20186;-91
2023/06/12 14:40:38;;;;;;;6.55;3.00;;;26.50;56.70;;;;;;7839844;28;20198;-92
2023/06/12 14:44:23;;;;;;;7.30;3.30;;;26.50;56.40;;;;;;7839715;28;20224;-91
2023/06/12 14:48:09;;;;;;;7.28;3.10;;;26.50;56.20;;;;;;7839752;28;20197;-90
2023/06/12 14:51:58;;;;;;;7.80;4.07;;;26.60;56.50;;;;;;7839561;28;20197;-90
2023/06/12 14:55:44;;;;;;;5.55;3.13;;;26.60;55.50;;;;;;7839539;28;20165;-90
2023/06/12 14:59:30;;;;;;;3.58;3.08;;;26.60;56.50;;;;;;7839430;28;20648;-91
2023/06/12 15:03:17;;;;;;;5.93;3.13;;;26.60;57.40;;;;;;7839672;28;20255;-91
2023/06/12 15:07:03;;;;;;;6.72;3.35;;;26.60;55.40;;;;;;7838782;28;20763;-91
2023/06/12 15:10:52;;;;;;;5.60;3.13;;;26.50;56.70;;;;;;7839046;28;20687;-91
2023/06/12 15:14:39;;;;;;;7.50;3.70;;;26.40;55.40;;;;;;7839124;28;20257;-91
2023/06/12 15:18:25;;;;;;;4.63;3.33;;;26.40;55.70;;;;;;7839433;28;20525;-91
2023/06/12 15:22:11;;;;;;;3.35;3.03;;;26.40;56.20;;;;;;7837978;28;20217;-90
2023/06/12 15:26:12;;;;;;;3.78;3.20;;;26.50;56.10;;;;;;7838386;28;20185;-91
2023/06/12 15:29:57;;;;;;;5.03;2.88;;;26.50;56.10;;;;;;7839020;28;20174;-90
2023/06/12 15:33:43;;;;;;;5.03;3.00;;;26.60;56.60;;;;;;7838751;28;20237;-91
2023/06/12 15:37:29;;;;;;;4.28;3.15;;;26.60;54.90;;;;;;7838617;28;20178;-91
2023/06/12 15:41:17;;;;;;;4.38;3.17;;;26.60;55.20;;;;;;7839924;28;20201;-91
2023/06/12 15:45:03;;;;;;;6.50;3.15;;;26.70;55.30;;;;;;7839015;28;20224;-91
2023/06/12 15:48:49;;;;;;;4.78;2.67;;;26.70;55.70;;;;;;7838982;28;20710;-91
2023/06/12 15:52:44;;;;;;;7.03;2.90;;;26.70;55.70;;;;;;7838584;28;20595;-91
2023/06/12 15:56:29;;;;;;;4.30;2.92;;;26.60;55.10;;;;;;7840190;28;20260;-91
2023/06/12 16:00:15;;;;;;;7.05;3.00;;;26.60;54.90;;;;;;7839745;28;20215;-91
2023/06/12 16:04:20;;;;;;;5.70;3.10;;;26.50;55.90;;;;;;7853992;28;20221;-91
2023/06/12 16:08:06;;;;;;;6.80;3.72;;;26.60;56.20;;;;;;7852785;28;20193;-92
2023/06/12 16:12:08;;;;;;;6.35;3.38;;;26.60;55.70;;;;;;7842750;28;20202;-91
2023/06/12 16:16:23;;;;;;;6.07;3.17;;;26.50;55.20;;;;;;7857945;28;20173;-94
2023/06/12 16:20:09;;;;;;;6.63;3.42;;;26.50;55.20;;;;;;7873135;28;20209;-91
2023/06/12 16:23:55;;;;;;;4.88;3.03;;;26.40;54.80;;;;;;7898797;22;20220;-85
2023/06/12 16:27:42;;;;;;;8.30;2.90;;;26.40;55.60;;;;;;7902930;28;20292;-85
2023/06/12 16:31:28;;;;;;;6.20;3.28;;;26.50;55.40;;;;;;7885999;28;20216;-85
2023/06/12 16:35:14;;;;;;;4.20;3.25;;;26.50;55.60;;;;;;7871856;28;20181;-85
2023/06/12 16:38:59;;;;;;;7.35;3.20;;;26.50;54.90;;;;;;7878835;28;20658;-85
2023/06/12 16:42:46;;;;;;;7.07;2.95;;;26.40;55.10;;;;;;7877500;28;20204;-85
2023/06/12 16:46:32;;;;;;;6.15;2.97;;;26.40;55.00;;;;;;7875998;28;20339;-85
2023/06/12 16:50:18;;;;;;;7.90;2.95;;;26.40;55.60;;;;;;7878656;28;20201;-85
2023/06/12 16:54:03;;;;;;;5.35;2.85;;;26.40;55.90;;;;;;7878085;28;20170;-87
2023/06/12 16:57:49;;;;;;;4.10;3.17;;;26.40;54.70;;;;;;7875556;28;20181;-85
2023/06/12 17:01:36;;;;;;;4.50;3.10;;;26.40;55.30;;;;;;7869709;28;20205;-85
2023/06/12 17:05:22;;;;;;;5.85;2.95;;;26.40;55.20;;;;;;7875332;28;20189;-85
2023/06/12 17:09:08;;;;;;;4.30;3.05;;;26.40;54.70;;;;;;7874718;28;20213;-85
2023/06/12 17:12:55;;;;;;;7.72;3.13;;;26.50;54.30;;;;;;7871540;28;20191;-85
2023/06/12 17:16:41;;;;;;;3.45;2.75;;;26.40;54.00;;;;;;7876028;28;20188;-85
2023/06/12 17:20:27;;;;;;;5.07;2.85;;;26.40;55.00;;;;;;7865904;28;20209;-85
2023/06/12 17:24:12;;;;;;;3.30;2.55;;;26.40;55.20;;;;;;7877472;28;20253;-85
2023/06/12 17:27:58;;;;;;;5.97;3.03;;;26.40;55.80;;;;;;7864931;28;20296;-85
2023/06/12 17:31:44;;;;;;;6.25;2.88;;;26.40;56.20;;;;;;7871427;28;20725;-85
2023/06/12 17:35:29;;;;;;;4.82;2.80;;;26.50;57.60;;;;;;7878062;28;20177;-85
2023/06/12 17:39:15;;;;;;;8.43;3.20;;;26.40;56.30;;;;;;7873806;28;20288;-85
2023/06/12 17:43:01;;;;;;;6.22;2.97;;;26.40;57.20;;;;;;7874922;28;20181;-85
2023/06/12 17:46:47;;;;;;;5.07;2.88;;;26.40;56.80;;;;;;7875844;28;20201;-85
2023/06/12 17:50:34;;;;;;;3.65;3.35;;;26.30;57.00;;;;;;7867758;28;20224;-85
2023/06/12 17:54:20;;;;;;;4.00;2.80;;;26.30;57.20;;;;;;7875382;28;20286;-85
2023/06/12 17:58:06;;;;;;;3.75;3.13;;;26.20;56.60;;;;;;7870946;28;20661;-84
2023/06/12 18:01:51;;;;;;;4.85;3.08;;;26.20;57.00;;;;;;7874609;28;20212;-85
2023/06/12 18:05:37;;;;;;;4.13;2.80;;;26.20;57.70;;;;;;7874758;28;20188;-86
2023/06/12 18:09:23;;;;;;;4.20;2.80;;;26.20;58.50;;;;;;7875080;28;20309;-87
2023/06/12 18:13:08;;;;;;;6.07;2.80;;;26.20;59.30;;;;;;7871617;28;20654;-86
2023/06/12 18:16:54;;;;;;;5.82;3.13;;;26.20;59.40;;;;;;7872173;28;20188;-87
2023/06/12 18:20:40;;;;;;;5.63;2.65;;;26.20;60.30;;;;;;7877199;28;20197;-86
2023/06/12 18:24:25;;;;;;;3.42;3.10;;;26.10;60.70;;;;;;7877649;28;20204;-86
2023/06/12 18:28:14;;;;;;;9.77;3.00;;;26.10;60.90;;;;;;7900328;28;20288;-85
2023/06/12 18:31:59;;;;;;;11.15;3.17;;;26.00;61.90;;;;;;7878291;28;20564;-87
2023/06/12 18:35:45;;;;;;;11.45;3.72;;;26.00;62.10;;;;;;7874205;28;20225;-87
2023/06/12 18:39:31;;;;;;;14.50;3.88;;;25.80;63.20;;;;;;7876903;28;20197;-85
2023/06/12 18:43:16;;;;;;;10.70;3.47;;;25.70;63.10;;;;;;7878240;28;20211;-86
2023/06/12 18:47:03;;;;;;;20.63;4.10;;;25.50;63.70;;;;;;7877817;28;20205;-85
2023/06/12 18:50:50;;;;;;;13.02;3.47;;;25.40;64.40;;;;;;7878019;28;20201;-85
2023/06/12 18:54:36;;;;;;;9.73;3.85;;;25.30;66.20;;;;;;7877797;28;20173;-86
2023/06/12 18:58:23;;;;;;;6.70;3.40;;;25.10;65.10;;;;;;7878860;28;20186;-86
2023/06/12 19:02:09;;;;;;;5.68;3.15;;;25.00;65.20;;;;;;7879006;28;20697;-86
2023/06/12 19:05:55;;;;;;;8.20;3.58;;;24.90;65.70;;;;;;7880836;28;20204;-86
2023/06/12 19:09:41;;;;;;;13.80;3.40;;;24.80;66.40;;;;;;7903827;28;20213;-88
2023/06/12 19:13:26;;;;;;;9.23;3.45;;;24.70;66.50;;;;;;7904242;28;20182;-85
2023/06/12 19:17:12;;;;;;;10.27;3.25;;;24.60;66.50;;;;;;7874788;28;20181;-86
2023/06/12 19:20:58;;;;;;;9.18;3.30;;;24.60;66.30;;;;;;7877217;28;20201;-86
2023/06/12 19:24:44;;;;;;;5.85;3.03;;;24.40;67.70;;;;;;7861372;28;20247;-87
2023/06/12 19:28:31;;;;;;;4.22;3.10;;;24.30;68.20;;;;;;7869072;28;20295;-86
2023/06/12 19:32:19;;;;;;;3.47;3.05;;;24.30;68.40;;;;;;7872275;28;20201;-86
2023/06/12 19:36:05;;;;;;;5.15;3.00;;;24.20;66.90;;;;;;7862432;28;20177;-85
2023/06/12 19:39:51;;;;;;;4.85;2.90;;;24.00;67.70;;;;;;7852529;28;20229;-85
2023/06/12 19:43:38;;;;;;;5.50;2.80;;;23.80;67.20;;;;;;7849883;28;20183;-85